createdAt,value
2018-12-19T00:00:03.882Z,3.70
2018-12-19T00:02:32.046Z,3.70
2018-12-19T00:05:00.171Z,3.60
2018-12-19T00:07:28.321Z,3.70
2018-12-19T00:09:56.445Z,3.70
2018-12-19T00:12:24.592Z,3.80
2018-12-19T00:14:52.742Z,3.90
2018-12-19T00:17:20.962Z,3.90
2018-12-19T00:19:49.111Z,3.90
2018-12-19T00:22:17.304Z,4.00
2018-12-19T00:24:45.465Z,4.00
2018-12-19T00:27:13.635Z,4.10
2018-12-19T00:29:41.849Z,4.10
2018-12-19T00:32:10.058Z,4.10
2018-12-19T00:34:38.198Z,4.10
2018-12-19T00:37:06.337Z,4.10
2018-12-19T00:39:34.630Z,4.10
2018-12-19T00:42:02.765Z,4.10
2018-12-19T00:44:30.941Z,4.10
2018-12-19T00:46:59.073Z,4.10
2018-12-19T00:49:27.286Z,4.10
2018-12-19T00:51:55.413Z,4.00
2018-12-19T00:54:23.556Z,4.00
2018-12-19T00:56:51.842Z,4.10
2018-12-19T00:59:19.991Z,4.10
2018-12-19T01:01:48.184Z,4.00
2018-12-19T01:04:16.331Z,4.10
2018-12-19T01:06:44.541Z,4.10
2018-12-19T01:09:15.880Z,4.10
2018-12-19T01:11:42.812Z,4.00
2018-12-19T01:14:10.980Z,4.20
2018-12-19T01:16:39.179Z,4.20
2018-12-19T01:19:07.441Z,4.20
2018-12-19T01:21:35.573Z,4.30
2018-12-19T01:24:03.853Z,4.30
2018-12-19T01:26:31.989Z,4.40
2018-12-19T01:29:00.129Z,4.40
2018-12-19T01:31:28.266Z,4.40
2018-12-19T01:33:56.405Z,4.40
2018-12-19T01:36:24.617Z,4.40
2018-12-19T01:38:52.775Z,4.40
2018-12-19T01:41:20.922Z,4.30
2018-12-19T01:43:49.095Z,4.30
2018-12-19T01:46:17.222Z,4.30
2018-12-19T01:48:45.429Z,4.30
2018-12-19T01:51:13.770Z,4.30
2018-12-19T01:53:42.172Z,4.30
2018-12-19T01:56:10.302Z,4.30
2018-12-19T01:58:38.449Z,4.30
2018-12-19T02:01:06.587Z,4.20
2018-12-19T02:03:34.860Z,4.30
2018-12-19T02:06:02.977Z,4.30
2018-12-19T02:08:31.198Z,4.30
2018-12-19T02:10:59.351Z,4.30
2018-12-19T02:13:27.476Z,4.30
2018-12-19T02:15:55.609Z,4.30
2018-12-19T02:18:23.741Z,4.30
2018-12-19T02:20:55.884Z,4.30
2018-12-19T02:23:24.188Z,4.30
2018-12-19T02:25:52.345Z,4.30
2018-12-19T02:28:20.477Z,4.30
2018-12-19T02:30:48.618Z,4.30
2018-12-19T02:33:16.798Z,4.30
2018-12-19T02:35:44.984Z,4.30
2018-12-19T02:38:13.180Z,4.40
2018-12-19T02:40:41.389Z,4.50
2018-12-19T02:43:09.573Z,4.50
2018-12-19T02:45:37.714Z,4.50
2018-12-19T02:48:05.841Z,4.40
2018-12-19T02:50:34.099Z,4.40
2018-12-19T02:53:02.216Z,4.40
2018-12-19T02:55:30.425Z,4.30
2018-12-19T02:57:58.629Z,4.30
2018-12-19T03:00:26.869Z,4.30
2018-12-19T03:02:55.076Z,4.30
2018-12-19T03:05:23.281Z,4.30
2018-12-19T03:07:51.491Z,4.30
2018-12-19T03:10:19.635Z,4.20
2018-12-19T03:12:47.839Z,4.20
2018-12-19T03:15:16.062Z,4.30
2018-12-19T03:17:44.194Z,4.30
2018-12-19T03:20:12.406Z,4.30
2018-12-19T03:22:40.549Z,4.30
2018-12-19T03:25:08.841Z,4.20
2018-12-19T03:27:36.961Z,4.20
2018-12-19T03:30:05.447Z,4.20
2018-12-19T03:32:33.751Z,4.20
2018-12-19T03:35:02.055Z,4.20
2018-12-19T03:37:30.195Z,4.20
2018-12-19T03:39:58.357Z,4.20
2018-12-19T03:42:26.493Z,4.20
2018-12-19T03:44:54.705Z,4.20
2018-12-19T03:47:22.851Z,4.20
2018-12-19T03:49:51.121Z,4.30
2018-12-19T03:52:19.376Z,4.30
2018-12-19T03:54:47.591Z,4.20
2018-12-19T03:57:15.803Z,4.30
2018-12-19T03:59:44.009Z,4.20
2018-12-19T04:02:12.126Z,4.20
2018-12-19T04:04:40.272Z,4.20
2018-12-19T04:07:08.468Z,4.20
2018-12-19T04:09:36.638Z,4.30
2018-12-19T04:12:04.921Z,4.30
2018-12-19T04:14:33.203Z,4.30
2018-12-19T04:17:01.370Z,4.30
2018-12-19T04:19:29.587Z,4.30
2018-12-19T04:21:57.837Z,4.30
2018-12-19T04:24:25.973Z,4.40
2018-12-19T04:26:54.122Z,4.30
2018-12-19T04:29:22.259Z,4.30
2018-12-19T04:31:50.415Z,4.40
2018-12-19T04:34:18.615Z,4.40
2018-12-19T04:36:46.749Z,4.40
2018-12-19T04:39:14.977Z,4.40
2018-12-19T04:41:43.118Z,4.30
2018-12-19T04:44:11.295Z,4.30
2018-12-19T04:46:39.507Z,4.30
2018-12-19T04:49:07.840Z,4.20
2018-12-19T04:51:35.993Z,4.30
2018-12-19T04:54:04.198Z,4.40
2018-12-19T04:56:32.341Z,4.40
2018-12-19T04:59:00.498Z,4.40
2018-12-19T05:01:28.729Z,4.50
2018-12-19T05:03:56.882Z,4.50
2018-12-19T05:06:25.101Z,4.50
2018-12-19T05:08:53.352Z,4.40
2018-12-19T05:11:21.505Z,4.30
2018-12-19T05:13:49.658Z,4.40
2018-12-19T05:16:17.824Z,4.30
2018-12-19T05:18:45.991Z,4.30
2018-12-19T05:21:14.149Z,4.30
2018-12-19T05:23:42.298Z,4.30
2018-12-19T05:26:10.449Z,4.30
2018-12-19T05:28:38.577Z,4.30
2018-12-19T05:31:06.718Z,4.40
2018-12-19T05:33:34.925Z,4.40
2018-12-19T05:36:03.146Z,4.40
2018-12-19T05:38:31.279Z,4.40
2018-12-19T05:40:59.421Z,4.40
2018-12-19T05:43:27.555Z,4.40
2018-12-19T05:45:55.775Z,4.40
2018-12-19T05:48:23.897Z,4.40
2018-12-19T05:50:52.043Z,4.40
2018-12-19T05:53:20.261Z,4.40
2018-12-19T05:55:48.470Z,4.40
2018-12-19T05:58:16.594Z,4.40
2018-12-19T06:00:44.731Z,4.40
2018-12-19T06:03:12.879Z,4.50
2018-12-19T06:05:41.129Z,4.40
2018-12-19T06:08:09.344Z,4.40
2018-12-19T06:10:37.494Z,4.50
2018-12-19T06:13:05.658Z,4.50
2018-12-19T06:15:33.800Z,4.60
2018-12-19T06:18:01.941Z,4.50
2018-12-19T06:20:30.165Z,4.50
2018-12-19T06:22:58.310Z,4.40
2018-12-19T06:25:26.452Z,4.50
2018-12-19T06:27:54.682Z,4.60
2018-12-19T06:30:23.104Z,4.70
2018-12-19T06:32:51.637Z,4.70
2018-12-19T06:35:19.777Z,4.70
2018-12-19T06:37:47.934Z,4.60
2018-12-19T06:40:16.149Z,4.60
2018-12-19T06:42:44.375Z,4.60
2018-12-19T06:45:12.575Z,4.60
2018-12-19T06:47:40.733Z,4.70
2018-12-19T06:50:09.572Z,4.80
2018-12-19T06:52:37.808Z,4.90
2018-12-19T06:55:06.220Z,4.90
2018-12-19T06:57:34.430Z,4.80
2018-12-19T07:00:02.710Z,4.80
2018-12-19T07:02:30.865Z,4.70
2018-12-19T07:04:58.996Z,4.80
2018-12-19T07:07:27.225Z,4.70
2018-12-19T07:09:55.372Z,4.60
2018-12-19T07:12:23.601Z,4.60
2018-12-19T07:14:52.017Z,4.50
2018-12-19T07:17:20.160Z,4.50
2018-12-19T07:19:48.291Z,4.40
2018-12-19T07:22:16.429Z,4.40
2018-12-19T07:24:44.562Z,4.40
2018-12-19T07:27:12.737Z,4.40
2018-12-19T07:29:40.863Z,4.30
2018-12-19T07:32:09.010Z,4.40
2018-12-19T07:34:37.150Z,4.30
2018-12-19T07:37:05.291Z,4.20
2018-12-19T07:39:33.901Z,4.20
2018-12-19T07:42:02.032Z,4.20
2018-12-19T07:44:30.169Z,4.20
2018-12-19T07:46:58.460Z,4.20
2018-12-19T07:49:26.602Z,4.20
2018-12-19T07:51:54.812Z,4.20
2018-12-19T07:54:23.031Z,4.20
2018-12-19T07:56:51.237Z,4.10
2018-12-19T07:59:19.389Z,4.10
2018-12-19T08:01:47.557Z,4.10
2018-12-19T08:04:16.165Z,4.10
2018-12-19T08:06:44.382Z,4.10
2018-12-19T08:09:12.544Z,4.20
2018-12-19T08:11:40.741Z,4.20
2018-12-19T08:14:09.061Z,4.30
2018-12-19T08:16:37.204Z,4.20
2018-12-19T08:19:05.336Z,4.30
2018-12-19T08:21:33.545Z,4.30
2018-12-19T08:24:01.778Z,4.30
2018-12-19T08:26:29.962Z,4.30
2018-12-19T08:28:58.098Z,4.30
2018-12-19T08:31:26.241Z,4.30
2018-12-19T08:33:54.453Z,4.30
2018-12-19T08:36:22.591Z,4.30
2018-12-19T08:38:50.729Z,4.30
2018-12-19T08:41:18.873Z,4.30
2018-12-19T08:43:47.021Z,4.40
2018-12-19T08:46:15.156Z,4.40
2018-12-19T08:48:43.333Z,4.40
2018-12-19T08:51:11.474Z,4.40
2018-12-19T08:53:39.691Z,4.40
2018-12-19T08:56:07.884Z,4.40
2018-12-19T08:58:36.031Z,4.50
2018-12-19T09:01:04.301Z,4.50
2018-12-19T09:03:32.449Z,4.50
2018-12-19T09:06:00.584Z,4.50
2018-12-19T09:08:28.729Z,4.60
2018-12-19T09:10:56.932Z,4.60
2018-12-19T09:13:25.198Z,4.60
2018-12-19T09:15:53.427Z,4.60
2018-12-19T09:18:21.581Z,4.60
2018-12-19T09:20:49.714Z,4.70
2018-12-19T09:23:17.866Z,4.80
2018-12-19T09:25:46.006Z,4.80
2018-12-19T09:28:14.156Z,4.80
2018-12-19T09:30:42.426Z,4.90
2018-12-19T09:33:10.560Z,4.90
2018-12-19T09:35:38.851Z,4.90
2018-12-19T09:38:06.982Z,4.90
2018-12-19T09:40:35.129Z,4.90
2018-12-19T09:43:03.354Z,5.00
2018-12-19T09:45:31.566Z,5.00
2018-12-19T09:47:59.725Z,5.00
2018-12-19T09:50:27.846Z,5.10
2018-12-19T09:52:55.994Z,5.10
2018-12-19T09:55:24.131Z,5.10
2018-12-19T09:57:52.338Z,5.10
2018-12-19T10:00:28.145Z,5.20
2018-12-19T10:02:56.531Z,5.10
2018-12-19T10:05:24.809Z,5.20
2018-12-19T10:07:53.013Z,5.20
2018-12-19T10:10:21.150Z,5.20
2018-12-19T10:12:49.277Z,5.20
2018-12-19T10:15:17.501Z,5.20
2018-12-19T10:17:45.619Z,5.30
2018-12-19T10:20:13.841Z,5.30
2018-12-19T10:22:41.986Z,5.30
2018-12-19T10:25:14.100Z,5.30
2018-12-19T10:27:42.481Z,5.30
2018-12-19T10:30:12.600Z,5.30
2018-12-19T10:32:41.151Z,5.40
2018-12-19T10:35:10.778Z,5.40
2018-12-19T10:37:38.990Z,5.40
2018-12-19T10:40:11.350Z,5.40
2018-12-19T10:42:39.473Z,5.50
2018-12-19T10:45:10.134Z,5.50
2018-12-19T10:47:38.333Z,5.50
2018-12-19T10:50:09.046Z,5.50
2018-12-19T10:52:37.174Z,5.50
2018-12-19T10:55:07.545Z,5.50
2018-12-19T10:57:35.810Z,5.50
2018-12-19T11:00:09.449Z,5.60
2018-12-19T11:02:37.660Z,5.50
2018-12-19T11:05:05.960Z,5.60
2018-12-19T11:07:34.161Z,5.60
2018-12-19T11:10:02.454Z,5.60
2018-12-19T11:12:30.579Z,5.60
2018-12-19T11:14:58.734Z,5.70
2018-12-19T11:17:26.869Z,5.70
2018-12-19T11:19:55.101Z,5.70
2018-12-19T11:22:23.304Z,5.70
2018-12-19T11:24:51.453Z,5.80
2018-12-19T11:27:19.664Z,5.80
2018-12-19T11:29:47.875Z,5.80
2018-12-19T11:32:16.021Z,5.90
2018-12-19T11:34:44.232Z,6.00
2018-12-19T11:37:12.353Z,6.00
2018-12-19T11:39:40.489Z,6.00
2018-12-19T11:42:08.697Z,6.00
2018-12-19T11:44:36.828Z,6.10
2018-12-19T11:47:05.048Z,6.10
2018-12-19T11:49:33.212Z,6.10
2018-12-19T11:52:01.354Z,6.10
2018-12-19T11:54:29.493Z,6.10
2018-12-19T11:56:57.629Z,6.10
2018-12-19T11:59:25.850Z,6.10
2018-12-19T12:01:53.965Z,6.10
2018-12-19T12:04:22.394Z,6.10
2018-12-19T12:06:50.596Z,6.10
2018-12-19T12:09:18.742Z,6.10
2018-12-19T12:11:46.892Z,6.20
2018-12-19T12:14:15.120Z,6.20
2018-12-19T12:16:43.261Z,6.30
2018-12-19T12:19:11.485Z,6.30
2018-12-19T12:21:39.641Z,6.30
2018-12-19T12:24:07.836Z,6.40
2018-12-19T12:26:37.077Z,6.40
2018-12-19T12:29:05.369Z,6.50
2018-12-19T12:31:33.503Z,6.60
2018-12-19T12:34:01.636Z,6.60
2018-12-19T12:36:30.082Z,6.70
2018-12-19T12:38:58.298Z,6.70
2018-12-19T12:41:26.476Z,6.70
2018-12-19T12:43:54.684Z,6.80
2018-12-19T12:46:22.912Z,6.80
2018-12-19T12:48:51.096Z,6.90
2018-12-19T12:51:19.367Z,6.90
2018-12-19T12:53:47.526Z,6.90
2018-12-19T12:56:15.781Z,7.00
2018-12-19T12:58:43.968Z,7.10
2018-12-19T13:01:12.293Z,7.00
2018-12-19T13:03:40.511Z,7.10
2018-12-19T13:06:08.724Z,7.20
2018-12-19T13:08:36.937Z,7.20
2018-12-19T13:11:05.244Z,7.30
2018-12-19T13:13:33.411Z,7.30
2018-12-19T13:16:01.635Z,7.60
2018-12-19T13:18:29.838Z,7.90
2018-12-19T13:20:57.990Z,8.20
2018-12-19T13:23:26.898Z,8.30
2018-12-19T13:25:55.242Z,8.40
2018-12-19T13:28:23.361Z,8.40
2018-12-19T13:30:51.566Z,8.30
2018-12-19T13:33:19.770Z,8.30
2018-12-19T13:35:47.986Z,8.20
2018-12-19T13:38:16.184Z,8.20
2018-12-19T13:40:44.404Z,8.20
2018-12-19T13:43:12.521Z,8.10
2018-12-19T13:45:40.769Z,8.00
2018-12-19T13:48:08.896Z,7.90
2018-12-19T13:50:37.108Z,7.90
2018-12-19T13:53:05.317Z,7.80
2018-12-19T13:55:33.700Z,7.80
2018-12-19T13:58:07.038Z,7.70
2018-12-19T14:00:32.166Z,7.60
2018-12-19T14:03:00.386Z,7.50
2018-12-19T14:05:28.516Z,7.40
2018-12-19T14:07:56.741Z,7.30
2018-12-19T14:10:24.889Z,7.20
2018-12-19T14:12:53.035Z,7.00
2018-12-19T14:15:21.284Z,6.90
2018-12-19T14:17:49.505Z,6.70
2018-12-19T14:20:17.653Z,6.70
2018-12-19T14:22:45.793Z,6.70
2018-12-19T14:25:14.145Z,6.60
2018-12-19T14:27:42.308Z,6.70
2018-12-19T14:30:10.628Z,6.60
2018-12-19T14:32:38.777Z,6.60
2018-12-19T14:35:07.014Z,6.60
2018-12-19T14:37:35.154Z,6.60
2018-12-19T14:40:03.834Z,6.50
2018-12-19T14:42:32.041Z,6.60
2018-12-19T14:45:00.182Z,6.50
2018-12-19T14:47:28.345Z,6.50
2018-12-19T14:49:56.493Z,6.50
2018-12-19T14:52:24.740Z,6.50
2018-12-19T14:54:52.877Z,6.40
2018-12-19T14:57:21.023Z,6.40
2018-12-19T14:59:49.145Z,6.30
2018-12-19T15:02:17.377Z,6.20
2018-12-19T15:04:45.585Z,6.20
2018-12-19T15:07:13.829Z,6.10
2018-12-19T15:09:42.093Z,6.10
2018-12-19T15:12:10.336Z,6.00
2018-12-19T15:14:38.557Z,6.00
2018-12-19T15:17:06.786Z,6.00
2018-12-19T15:19:34.932Z,6.00
2018-12-19T15:22:03.221Z,6.00
2018-12-19T15:24:31.373Z,6.00
2018-12-19T15:26:59.554Z,6.00
2018-12-19T15:29:27.698Z,6.00
2018-12-19T15:31:55.838Z,5.90
2018-12-19T15:34:24.058Z,5.80
2018-12-19T15:36:52.343Z,5.70
2018-12-19T15:39:20.726Z,5.60
2018-12-19T15:41:48.954Z,5.50
2018-12-19T15:44:17.223Z,5.30
2018-12-19T15:46:45.446Z,5.20
2018-12-19T15:49:13.666Z,5.10
2018-12-19T15:51:41.805Z,5.00
2018-12-19T15:54:09.969Z,4.90
2018-12-19T15:56:38.133Z,4.90
2018-12-19T15:59:06.365Z,4.80
2018-12-19T16:01:34.577Z,4.90
2018-12-19T16:04:02.815Z,4.80
2018-12-19T16:06:31.053Z,4.80
2018-12-19T16:08:59.195Z,4.80
2018-12-19T16:11:27.357Z,4.70
2018-12-19T16:13:55.590Z,4.70
2018-12-19T16:16:23.817Z,4.70
2018-12-19T16:18:52.022Z,4.70
2018-12-19T16:21:20.169Z,4.70
2018-12-19T16:23:48.364Z,4.70
2018-12-19T16:26:16.514Z,4.60
2018-12-19T16:28:44.828Z,4.50
2018-12-19T16:31:13.053Z,4.40
2018-12-19T16:33:41.261Z,4.30
2018-12-19T16:36:09.489Z,4.20
2018-12-19T16:38:37.766Z,4.00
2018-12-19T16:41:06.007Z,4.10
2018-12-19T16:43:34.137Z,4.20
2018-12-19T16:46:02.372Z,4.20
2018-12-19T16:48:30.565Z,4.20
2018-12-19T16:50:58.761Z,4.20
2018-12-19T16:53:27.169Z,4.20
2018-12-19T16:55:55.417Z,4.20
2018-12-19T16:58:23.677Z,4.20
2018-12-19T17:00:51.943Z,4.20
2018-12-19T17:03:20.166Z,4.20
2018-12-19T17:05:48.450Z,4.00
2018-12-19T17:08:16.743Z,3.90
2018-12-19T17:10:45.057Z,3.80
2018-12-19T17:13:13.347Z,3.70
2018-12-19T17:15:41.589Z,3.60
2018-12-19T17:18:10.757Z,3.60
2018-12-19T17:20:38.966Z,3.50
2018-12-19T17:23:07.217Z,3.60
2018-12-19T17:25:35.476Z,3.70
2018-12-19T17:28:03.861Z,3.70
2018-12-19T17:30:32.079Z,3.80
2018-12-19T17:33:00.445Z,3.80
2018-12-19T17:35:28.598Z,3.90
2018-12-19T17:37:56.829Z,3.80
2018-12-19T17:40:24.982Z,3.80
2018-12-19T17:42:59.222Z,3.80
2018-12-19T17:45:23.531Z,3.70
2018-12-19T17:47:51.734Z,3.70
2018-12-19T17:50:20.026Z,3.80
2018-12-19T17:52:48.473Z,3.80
2018-12-19T17:55:16.731Z,3.70
2018-12-19T17:57:44.938Z,3.70
2018-12-19T18:00:13.261Z,3.70
2018-12-19T18:02:41.532Z,3.60
2018-12-19T18:05:09.897Z,3.60
2018-12-19T18:07:38.222Z,3.60
2018-12-19T18:10:06.627Z,3.50
2018-12-19T18:12:35.194Z,3.50
2018-12-19T18:15:04.053Z,3.40
2018-12-19T18:17:32.497Z,3.40
2018-12-19T18:20:00.797Z,3.40
2018-12-19T18:22:29.228Z,3.40
2018-12-19T18:24:57.498Z,3.30
2018-12-19T18:27:25.982Z,3.30
2018-12-19T18:29:54.668Z,3.20
2018-12-19T18:32:23.429Z,3.20
2018-12-19T18:34:53.482Z,3.10
2018-12-19T18:37:22.167Z,3.10
2018-12-19T18:39:50.443Z,3.10
2018-12-19T18:42:20.048Z,3.10
2018-12-19T18:44:48.947Z,3.00
2018-12-19T18:47:17.330Z,3.10
2018-12-19T18:49:45.788Z,3.00
2018-12-19T18:52:14.028Z,3.00
2018-12-19T18:54:42.684Z,3.00
2018-12-19T18:57:11.269Z,3.00
2018-12-19T18:59:40.011Z,2.90
2018-12-19T19:02:08.823Z,3.00
2018-12-19T19:04:37.553Z,3.00
2018-12-19T19:07:06.077Z,3.10
2018-12-19T19:09:35.071Z,3.10
2018-12-19T19:12:03.838Z,3.00
2018-12-19T19:14:32.132Z,3.00
2018-12-19T19:17:00.449Z,2.90
2018-12-19T19:19:28.807Z,2.90
2018-12-19T19:21:57.080Z,3.10
2018-12-19T19:24:25.352Z,3.10
2018-12-19T19:26:53.705Z,3.20
2018-12-19T19:29:21.984Z,3.20
2018-12-19T19:31:50.338Z,3.30
2018-12-19T19:34:24.864Z,3.40
2018-12-19T19:36:48.694Z,3.50
2018-12-19T19:39:17.956Z,3.50
2018-12-19T19:41:46.420Z,3.60
2018-12-19T19:44:14.711Z,3.50
2018-12-19T19:46:43.070Z,3.50
2018-12-19T19:49:11.354Z,3.50
2018-12-19T19:51:39.720Z,3.60
2018-12-19T19:54:07.985Z,3.60
2018-12-19T19:56:36.275Z,3.70
2018-12-19T19:59:04.599Z,3.80
2018-12-19T20:01:32.921Z,3.90
2018-12-19T20:04:01.093Z,3.90
2018-12-19T20:06:29.337Z,3.90
2018-12-19T20:08:57.574Z,3.80
2018-12-19T20:11:25.944Z,3.80
2018-12-19T20:13:54.310Z,3.80
2018-12-19T20:21:18.699Z,3.80
2018-12-19T20:23:46.924Z,3.90
2018-12-19T20:26:15.177Z,3.80
2018-12-19T20:28:43.461Z,3.90
2018-12-19T20:31:11.677Z,3.90
2018-12-19T20:33:40.001Z,3.80
2018-12-19T20:36:08.253Z,3.80
2018-12-19T20:38:36.455Z,3.80
2018-12-19T20:41:04.917Z,3.80
2018-12-19T20:43:39.722Z,3.80
2018-12-19T20:46:03.577Z,3.90
2018-12-19T20:48:31.817Z,3.90
2018-12-19T20:51:00.068Z,3.90
2018-12-19T20:53:29.346Z,3.90
2018-12-19T20:56:03.585Z,3.90
2018-12-19T20:58:27.870Z,4.00
2018-12-19T21:00:56.233Z,4.00
2018-12-19T21:03:24.439Z,3.90
2018-12-19T21:05:53.866Z,3.80
2018-12-19T21:08:22.211Z,3.90
2018-12-19T21:10:50.464Z,3.90
2018-12-19T21:13:18.724Z,4.00
2018-12-19T21:15:47.141Z,4.10
2018-12-19T21:18:20.926Z,4.20
2018-12-19T21:20:49.141Z,4.20
2018-12-19T21:23:17.523Z,4.30
2018-12-19T21:25:45.735Z,4.40
2018-12-19T21:28:13.985Z,4.50
2018-12-19T21:30:42.185Z,4.50
2018-12-19T21:33:13.957Z,4.60
2018-12-19T21:35:40.592Z,4.60
2018-12-19T21:38:08.850Z,4.60
2018-12-19T21:40:38.211Z,4.70
2018-12-19T21:43:07.427Z,4.70
2018-12-19T21:45:36.779Z,4.70
2018-12-19T21:48:05.016Z,4.70
2018-12-19T21:50:33.286Z,4.80
2018-12-19T21:53:02.626Z,4.80
2018-12-19T21:55:30.965Z,4.80
2018-12-19T21:57:59.250Z,4.80
2018-12-19T22:00:34.233Z,4.80
2018-12-19T22:03:06.916Z,4.90
2018-12-19T22:05:37.142Z,4.90
2018-12-19T22:08:05.647Z,4.80
2018-12-19T22:10:34.057Z,4.80
2018-12-19T22:13:02.447Z,4.80
2018-12-19T22:15:30.703Z,4.90
2018-12-19T22:18:04.521Z,4.80
2018-12-19T22:20:32.823Z,4.80
2018-12-19T22:23:01.111Z,4.80
2018-12-19T22:25:29.392Z,4.80
2018-12-19T22:27:57.659Z,4.80
2018-12-19T22:30:25.864Z,4.80
2018-12-19T22:32:54.030Z,4.80
2018-12-19T22:35:22.360Z,4.60
2018-12-19T22:37:50.673Z,4.60
2018-12-19T22:40:18.874Z,4.60
2018-12-19T22:42:47.235Z,4.50
2018-12-19T22:45:15.656Z,4.50
2018-12-19T22:47:43.985Z,4.40
2018-12-19T22:50:12.262Z,4.40
2018-12-19T22:52:40.550Z,4.30
2018-12-19T22:55:10.010Z,4.30
2018-12-19T22:57:38.334Z,4.30
2018-12-19T23:00:12.448Z,4.30
2018-12-19T23:02:46.331Z,4.30
2018-12-19T23:05:17.530Z,4.30
2018-12-19T23:07:45.661Z,4.30
2018-12-19T23:10:13.916Z,4.40
2018-12-19T23:12:42.189Z,4.40
2018-12-19T23:15:10.496Z,4.40
2018-12-19T23:17:40.232Z,4.50
2018-12-19T23:20:10.045Z,4.50
2018-12-19T23:22:38.330Z,4.50
2018-12-19T23:25:07.330Z,4.60
2018-12-19T23:27:35.576Z,4.70
2018-12-19T23:30:05.500Z,4.70
2018-12-19T23:32:33.672Z,4.70
2018-12-19T23:35:01.980Z,4.70
2018-12-19T23:37:30.208Z,4.70
2018-12-19T23:39:58.440Z,4.70
2018-12-19T23:42:26.585Z,4.70
2018-12-19T23:44:54.745Z,4.80
2018-12-19T23:47:22.916Z,4.80
2018-12-19T23:49:51.156Z,4.80
2018-12-19T23:52:19.446Z,4.90
2018-12-19T23:54:47.601Z,4.90
2018-12-19T23:57:15.979Z,4.90
2018-12-19T23:59:44.256Z,4.90
